Terminal Aerodrome Forecast
Issued by NWS

Home | Current Version | Previous Version | Text Only | Print | Product List | Glossary On
Versions: 1 2 3 4 5 6 7 8 9 10 11 12 13 14 15
000
FTUS42 KTBW 012339
TAFLAL
TAF
KLAL 012339Z 0200/0224 34006KT P6SM FEW040 BKN250
     FM020200 VRB03KT P6SM SCT100 BKN250
     FM021200 VRB02KT P6SM BKN025
     FM021500 21005KT P6SM VCTS SCT035CB SCT250=

USA.gov is the U.S. government's official web portal to all federal, state and local government web resources and services.